createdAt,value
2023-05-12T00:01:42.584Z,11.19
2023-05-12T00:04:12.931Z,11.21
2023-05-12T00:06:42.789Z,11.17
2023-05-12T00:09:10.256Z,11.08
2023-05-12T00:11:38.251Z,11.07
2023-05-12T00:14:06.237Z,11.04
2023-05-12T00:16:33.579Z,11.02
2023-05-12T00:19:01.435Z,10.97
2023-05-12T00:21:28.872Z,10.96
2023-05-12T00:23:56.514Z,11.08
2023-05-12T00:26:24.046Z,11.06
2023-05-12T00:28:52.491Z,11.10
2023-05-12T00:31:19.817Z,10.99
2023-05-12T00:33:47.258Z,10.98
2023-05-12T00:36:14.704Z,10.96
2023-05-12T00:38:42.320Z,10.91
2023-05-12T00:41:09.723Z,10.90
2023-05-12T00:43:37.542Z,10.88
2023-05-12T00:46:06.262Z,10.86
2023-05-12T00:48:36.098Z,10.79
2023-05-12T00:51:04.784Z,10.78
2023-05-12T00:53:45.078Z,10.78
2023-05-12T00:56:17.932Z,10.76
2023-05-12T00:58:45.971Z,10.67
2023-05-12T01:01:14.199Z,10.68
2023-05-12T01:03:41.836Z,10.72
2023-05-12T01:06:12.987Z,10.72
2023-05-12T01:08:41.578Z,10.66
2023-05-12T01:11:10.120Z,10.73
2023-05-12T01:13:39.559Z,10.68
2023-05-12T01:16:09.855Z,10.73
2023-05-12T01:18:39.375Z,10.71
2023-05-12T01:21:08.202Z,10.72
2023-05-12T01:23:37.906Z,10.77
2023-05-12T01:26:07.973Z,10.78
2023-05-12T01:28:37.336Z,10.75
2023-05-12T01:31:06.724Z,10.78
2023-05-12T01:33:35.721Z,10.74
2023-05-12T01:36:03.234Z,10.73
2023-05-12T01:38:30.689Z,10.62
2023-05-12T01:40:58.306Z,10.68
2023-05-12T01:43:25.707Z,10.67
2023-05-12T01:45:52.920Z,10.69
2023-05-12T01:48:20.334Z,10.73
2023-05-12T01:50:47.830Z,10.75
2023-05-12T01:53:20.004Z,10.62
2023-05-12T01:55:47.505Z,10.64
2023-05-12T01:58:15.016Z,10.62
2023-05-12T02:00:42.592Z,10.67
2023-05-12T02:03:14.829Z,10.67
2023-05-12T02:05:42.221Z,10.74
2023-05-12T02:08:09.674Z,10.72
2023-05-12T02:10:37.071Z,10.74
2023-05-12T02:13:04.587Z,10.74
2023-05-12T02:15:34.388Z,10.72
2023-05-12T02:18:03.786Z,10.73
2023-05-12T02:20:31.264Z,10.76
2023-05-12T02:22:58.723Z,10.79
2023-05-12T02:25:26.138Z,10.79
2023-05-12T02:27:53.638Z,10.81
2023-05-12T02:30:21.320Z,10.69
2023-05-12T02:32:49.050Z,10.69
2023-05-12T02:35:16.475Z,10.63
2023-05-12T02:37:43.829Z,10.68
2023-05-12T02:40:11.397Z,10.67
2023-05-12T02:42:40.469Z,10.61
2023-05-12T02:45:08.205Z,10.57
2023-05-12T02:47:36.511Z,10.55
2023-05-12T02:50:04.220Z,10.51
2023-05-12T02:52:32.383Z,10.48
2023-05-12T02:54:59.786Z,10.48
2023-05-12T02:57:33.039Z,10.47
2023-05-12T03:00:06.891Z,10.35
2023-05-12T03:02:38.726Z,10.32
2023-05-12T03:05:09.232Z,10.37
2023-05-12T03:07:37.173Z,10.38
2023-05-12T03:10:04.824Z,10.38
2023-05-12T03:12:32.329Z,10.39
2023-05-12T03:15:00.040Z,10.37
2023-05-12T03:17:27.446Z,10.32
2023-05-12T03:19:54.863Z,10.32
2023-05-12T03:22:22.317Z,10.39
2023-05-12T03:24:49.623Z,10.37
2023-05-12T03:27:17.088Z,10.25
2023-05-12T03:29:44.457Z,10.29
2023-05-12T03:32:12.206Z,10.33
2023-05-12T03:34:39.764Z,10.35
2023-05-12T03:37:07.222Z,10.33
2023-05-12T03:39:34.483Z,10.31
2023-05-12T03:42:01.905Z,10.29
2023-05-12T03:44:29.246Z,10.29
2023-05-12T03:46:57.623Z,10.32
2023-05-12T03:49:26.106Z,10.22
2023-05-12T03:51:53.522Z,10.27
2023-05-12T03:54:20.920Z,10.29
2023-05-12T03:56:48.264Z,10.22
2023-05-12T03:59:16.314Z,10.21
2023-05-12T04:01:43.822Z,10.22
2023-05-12T04:04:11.293Z,10.23
2023-05-12T04:06:38.731Z,10.29
2023-05-12T04:09:05.944Z,10.27
2023-05-12T04:11:33.287Z,10.25
2023-05-12T04:14:01.212Z,10.21
2023-05-12T04:16:28.585Z,10.12
2023-05-12T04:18:57.606Z,10.13
2023-05-12T04:21:25.080Z,10.06
2023-05-12T04:23:52.940Z,10.08
2023-05-12T04:26:22.139Z,10.15
2023-05-12T04:28:49.597Z,10.15
2023-05-12T04:31:16.893Z,10.07
2023-05-12T04:33:46.500Z,10.12
2023-05-12T04:36:16.178Z,10.13
2023-05-12T04:38:43.544Z,10.19
2023-05-12T04:41:11.044Z,10.27
2023-05-12T04:46:08.900Z,10.28
2023-05-12T04:48:41.966Z,10.30
2023-05-12T04:51:09.384Z,10.39
2023-05-12T04:53:36.751Z,10.31
2023-05-12T04:56:04.198Z,10.30
2023-05-12T04:58:38.477Z,10.32
2023-05-12T05:01:07.120Z,10.33
2023-05-12T05:03:34.798Z,10.28
2023-05-12T05:06:02.477Z,10.21
2023-05-12T05:08:29.932Z,10.29
2023-05-12T05:10:57.416Z,10.32
2023-05-12T05:13:25.829Z,10.33
2023-05-12T05:15:53.736Z,10.31
2023-05-12T05:18:24.003Z,10.37
2023-05-12T05:23:23.462Z,10.34
2023-05-12T05:25:51.362Z,10.37
2023-05-12T05:28:18.840Z,10.38
2023-05-12T05:30:46.286Z,10.45
2023-05-12T05:33:14.815Z,10.49
2023-05-12T05:35:42.664Z,10.52
2023-05-12T05:38:11.428Z,10.47
2023-05-12T05:40:45.439Z,10.47
2023-05-12T05:43:16.636Z,10.48
2023-05-12T05:45:44.449Z,10.52
2023-05-12T05:48:12.167Z,10.57
2023-05-12T05:50:39.780Z,10.59
2023-05-12T05:53:07.183Z,10.59
2023-05-12T05:55:34.613Z,10.59
2023-05-12T05:58:01.941Z,10.56
2023-05-12T06:00:29.535Z,10.61
2023-05-12T06:02:57.033Z,10.63
2023-05-12T06:05:24.667Z,10.66
2023-05-12T06:07:52.080Z,10.78
2023-05-12T06:10:19.907Z,10.82
2023-05-12T06:12:49.713Z,10.77
2023-05-12T06:15:21.905Z,10.78
2023-05-12T06:17:50.289Z,10.84
2023-05-12T06:20:17.719Z,10.86
2023-05-12T06:22:47.840Z,10.85
2023-05-12T06:25:16.680Z,10.93
2023-05-12T06:27:44.059Z,11.00
2023-05-12T06:30:15.066Z,11.03
2023-05-12T06:32:43.517Z,11.00
2023-05-12T06:35:10.849Z,11.02
2023-05-12T06:37:38.618Z,11.01
2023-05-12T06:40:06.358Z,11.02
2023-05-12T06:42:33.816Z,11.02
2023-05-12T06:45:08.754Z,11.10
2023-05-12T06:47:36.191Z,11.19
2023-05-12T06:50:03.539Z,11.22
2023-05-12T06:52:31.201Z,11.23
2023-05-12T06:54:58.616Z,11.28
2023-05-12T06:57:56.150Z,11.33
2023-05-12T07:00:25.127Z,11.43
2023-05-12T07:02:52.512Z,11.36
2023-05-12T07:05:20.358Z,11.38
2023-05-12T07:07:47.890Z,11.32
2023-05-12T07:10:15.401Z,11.46
2023-05-12T07:12:51.480Z,11.58
2023-05-12T07:15:19.624Z,11.64
2023-05-12T07:17:50.094Z,11.67
2023-05-12T07:20:28.229Z,11.78
2023-05-12T07:22:56.641Z,11.87
2023-05-12T07:25:24.115Z,11.94
2023-05-12T07:27:51.656Z,12.01
2023-05-12T07:30:18.994Z,12.19
2023-05-12T07:32:46.601Z,12.32
2023-05-12T07:35:14.057Z,12.12
2023-05-12T07:37:41.601Z,12.11
2023-05-12T07:40:09.098Z,12.09
2023-05-12T07:42:36.319Z,12.13
2023-05-12T07:45:04.025Z,12.31
2023-05-12T07:47:31.679Z,12.34
2023-05-12T07:49:58.960Z,12.28
2023-05-12T07:52:26.329Z,12.36
2023-05-12T07:54:56.301Z,12.53
2023-05-12T07:57:31.783Z,12.66
2023-05-12T07:59:59.645Z,12.68
2023-05-12T08:02:27.157Z,12.74
2023-05-12T08:04:54.607Z,12.79
2023-05-12T08:07:24.573Z,12.74
2023-05-12T08:09:52.646Z,12.75
2023-05-12T08:12:20.923Z,12.71
2023-05-12T08:14:48.318Z,12.74
2023-05-12T08:17:15.585Z,12.75
2023-05-12T08:19:42.974Z,12.80
2023-05-12T08:22:10.278Z,12.79
2023-05-12T08:24:37.593Z,12.88
2023-05-12T08:27:05.101Z,12.79
2023-05-12T08:29:32.468Z,12.81
2023-05-12T08:31:59.986Z,12.83
2023-05-12T08:34:27.274Z,12.79
2023-05-12T08:36:54.920Z,12.77
2023-05-12T08:39:34.557Z,12.79
2023-05-12T08:42:35.374Z,12.80
2023-05-12T08:45:04.000Z,12.79
2023-05-12T08:47:57.993Z,12.68
2023-05-12T08:50:25.930Z,12.79
2023-05-12T08:52:55.535Z,12.77
2023-05-12T08:55:26.319Z,12.75
2023-05-12T09:01:11.796Z,12.81
2023-05-12T09:03:44.450Z,12.82
2023-05-12T09:06:12.307Z,12.84
2023-05-12T09:08:40.755Z,12.86
2023-05-12T09:11:17.745Z,13.00
2023-05-12T09:14:03.782Z,13.09
2023-05-12T09:16:33.465Z,13.23
2023-05-12T09:19:07.010Z,13.43
2023-05-12T09:21:46.700Z,13.58
2023-05-12T09:24:21.546Z,13.81
2023-05-12T09:26:53.372Z,14.09
2023-05-12T09:29:42.348Z,14.33
2023-05-12T09:32:38.987Z,14.66
2023-05-12T09:35:41.522Z,15.13
2023-05-12T09:38:10.133Z,15.22
2023-05-12T09:40:39.867Z,15.40
2023-05-12T09:43:27.423Z,15.35
2023-05-12T09:46:20.009Z,15.55
2023-05-12T09:48:48.505Z,15.44
2023-05-12T09:51:21.017Z,15.47
2023-05-12T09:53:48.989Z,15.39
2023-05-12T09:56:31.534Z,15.24
2023-05-12T09:58:59.213Z,15.11
2023-05-12T10:01:31.340Z,14.92
2023-05-12T10:03:59.508Z,14.86
2023-05-12T10:06:40.297Z,14.75
2023-05-12T10:09:22.957Z,14.66
2023-05-12T10:11:56.175Z,14.71
2023-05-12T10:14:28.215Z,14.73
2023-05-12T10:17:02.853Z,14.70
2023-05-12T10:19:57.641Z,14.77
2023-05-12T10:22:44.475Z,14.85
2023-05-12T10:25:15.388Z,14.78
2023-05-12T10:31:25.499Z,15.14
2023-05-12T10:38:13.177Z,15.22
2023-05-12T10:41:41.157Z,14.94
2023-05-12T10:44:29.543Z,14.87
2023-05-12T10:47:22.095Z,14.82
2023-05-12T10:49:55.575Z,14.83
2023-05-12T10:53:08.700Z,14.86
2023-05-12T10:55:49.748Z,14.78
2023-05-12T10:58:18.255Z,14.76
2023-05-12T11:00:54.877Z,14.75
2023-05-12T11:03:33.304Z,14.81
2023-05-12T11:06:04.835Z,14.72
2023-05-12T11:08:44.306Z,14.83
2023-05-12T11:11:26.279Z,14.73
2023-05-12T11:14:18.446Z,14.83
2023-05-12T11:16:57.192Z,14.68
2023-05-12T11:19:26.395Z,14.77
2023-05-12T11:22:17.086Z,14.72
2023-05-12T11:24:51.120Z,14.70
2023-05-12T11:32:06.895Z,14.47
2023-05-12T11:34:40.195Z,14.42
2023-05-12T11:37:13.678Z,14.41
2023-05-12T11:39:41.924Z,14.44
2023-05-12T11:42:13.219Z,14.57
2023-05-12T11:44:47.997Z,14.51
2023-05-12T11:47:17.270Z,14.60
2023-05-12T11:50:40.775Z,14.73
2023-05-12T11:56:20.583Z,15.03
2023-05-12T11:59:53.687Z,15.34
2023-05-12T12:08:06.471Z,15.48
2023-05-12T12:10:33.852Z,15.48
2023-05-12T12:13:01.634Z,15.52
2023-05-12T12:15:29.374Z,15.57
2023-05-12T12:17:56.826Z,15.58
2023-05-12T12:20:25.004Z,15.50
2023-05-12T12:22:52.811Z,15.51
2023-05-12T12:25:21.111Z,15.52
2023-05-12T12:27:52.953Z,15.59
2023-05-12T12:30:20.377Z,15.80
2023-05-12T12:32:47.797Z,16.33
2023-05-12T12:35:15.281Z,16.45
2023-05-12T12:37:42.754Z,16.49
2023-05-12T12:41:00.130Z,16.61
2023-05-12T12:43:27.504Z,16.94
2023-05-12T12:45:54.822Z,17.15
2023-05-12T12:48:23.110Z,17.33
2023-05-12T12:50:50.535Z,17.26
2023-05-12T12:53:17.899Z,17.10
2023-05-12T12:55:45.255Z,17.06
2023-05-12T12:58:12.642Z,17.18
2023-05-12T13:00:39.999Z,17.16
2023-05-12T13:03:08.330Z,17.30
2023-05-12T13:05:35.772Z,17.37
2023-05-12T13:08:03.021Z,17.38
2023-05-12T13:10:30.586Z,16.95
2023-05-12T13:12:57.867Z,17.09
2023-05-12T13:15:25.875Z,16.88
2023-05-12T13:17:53.511Z,16.95
2023-05-12T13:20:21.041Z,17.08
2023-05-12T13:22:49.072Z,17.03
2023-05-12T13:25:16.561Z,16.89
2023-05-12T13:27:43.981Z,16.92
2023-05-12T13:30:13.681Z,17.07
2023-05-12T13:32:41.694Z,17.12
2023-05-12T13:35:09.530Z,17.11
2023-05-12T13:37:37.635Z,17.11
2023-05-12T13:40:05.318Z,16.99
2023-05-12T13:42:32.764Z,17.00
2023-05-12T13:45:00.217Z,17.13
2023-05-12T13:47:28.247Z,17.04
2023-05-12T13:49:56.639Z,17.26
2023-05-12T13:52:24.120Z,17.40
2023-05-12T13:54:52.068Z,17.52
2023-05-12T13:57:20.918Z,17.32
2023-05-12T13:59:52.296Z,17.54
2023-05-12T14:02:19.979Z,17.37
2023-05-12T14:05:18.344Z,17.41
2023-05-12T14:07:46.029Z,17.37
2023-05-12T14:10:14.135Z,17.30
2023-05-12T14:12:42.900Z,17.46
2023-05-12T14:15:26.148Z,17.37
2023-05-12T14:17:58.657Z,17.50
2023-05-12T14:20:26.351Z,17.71
2023-05-12T14:22:54.039Z,17.71
2023-05-12T14:25:23.993Z,17.94
2023-05-12T14:27:51.439Z,18.00
2023-05-12T14:30:19.064Z,17.81
2023-05-12T14:32:46.736Z,17.75
2023-05-12T14:35:14.255Z,17.80
2023-05-12T14:37:41.803Z,17.62
2023-05-12T14:40:09.445Z,17.74
2023-05-12T14:42:38.089Z,17.80
2023-05-12T14:45:06.690Z,17.84
2023-05-12T14:47:34.368Z,17.85
2023-05-12T14:50:01.724Z,17.88
2023-05-12T14:52:29.069Z,17.97
2023-05-12T14:54:56.515Z,18.08
2023-05-12T14:57:24.046Z,18.20
2023-05-12T14:59:54.444Z,18.02
2023-05-12T15:02:22.006Z,18.05
2023-05-12T15:04:49.484Z,18.03
2023-05-12T15:07:17.015Z,18.00
2023-05-12T15:09:44.384Z,17.99
2023-05-12T15:12:11.896Z,18.05
2023-05-12T15:14:39.355Z,17.75
2023-05-12T15:17:07.060Z,17.85
2023-05-12T15:19:34.613Z,17.89
2023-05-12T15:22:02.169Z,17.77
2023-05-12T15:24:30.352Z,17.69
2023-05-12T15:27:01.396Z,17.76
2023-05-12T15:29:28.940Z,17.89
2023-05-12T15:31:56.820Z,18.03
2023-05-12T15:34:24.769Z,17.82
2023-05-12T15:36:52.676Z,17.82
2023-05-12T15:39:21.823Z,17.85
2023-05-12T15:41:53.207Z,17.73
2023-05-12T15:44:20.846Z,17.86
2023-05-12T15:46:48.387Z,17.90
2023-05-12T15:49:15.797Z,17.90
2023-05-12T15:51:43.293Z,17.88
2023-05-12T15:54:11.516Z,17.70
2023-05-12T15:56:39.327Z,17.58
2023-05-12T15:59:07.590Z,17.46
2023-05-12T16:01:35.211Z,17.61
2023-05-12T16:04:02.683Z,17.65
2023-05-12T16:06:30.116Z,17.69
2023-05-12T16:08:57.447Z,17.57
2023-05-12T16:11:27.421Z,17.64
2023-05-12T16:13:54.785Z,17.54
2023-05-12T16:16:25.343Z,17.52
2023-05-12T16:19:00.547Z,17.54
2023-05-12T16:21:34.143Z,17.40
2023-05-12T16:24:01.526Z,17.51
2023-05-12T16:26:29.510Z,17.33
2023-05-12T16:28:57.036Z,17.31
2023-05-12T16:31:24.405Z,17.30
2023-05-12T16:33:51.948Z,17.26
2023-05-12T16:36:19.876Z,17.34
2023-05-12T16:38:47.571Z,17.30
2023-05-12T16:41:15.040Z,17.40
2023-05-12T16:43:42.640Z,17.17
2023-05-12T16:46:12.281Z,17.21
2023-05-12T16:48:39.832Z,17.02
2023-05-12T16:51:08.868Z,17.10
2023-05-12T16:53:36.404Z,17.08
2023-05-12T16:56:04.201Z,17.20
2023-05-12T16:58:36.570Z,17.16
2023-05-12T17:01:04.843Z,17.19
2023-05-12T17:03:32.389Z,17.07
2023-05-12T17:05:59.949Z,17.02
2023-05-12T17:08:27.483Z,17.03
2023-05-12T17:10:54.983Z,17.02
2023-05-12T17:13:22.513Z,16.91
2023-05-12T17:15:51.137Z,16.87
2023-05-12T17:18:18.869Z,16.97
2023-05-12T17:20:46.307Z,16.99
2023-05-12T17:23:13.841Z,16.94
2023-05-12T17:25:41.343Z,16.88
2023-05-12T17:28:08.763Z,16.66
2023-05-12T17:30:37.319Z,16.58
2023-05-12T17:33:04.684Z,16.26
2023-05-12T17:35:32.711Z,15.96
2023-05-12T17:38:00.424Z,15.80
2023-05-12T17:40:27.782Z,15.69
2023-05-12T17:42:55.490Z,15.67
2023-05-12T17:45:26.140Z,15.56
2023-05-12T17:47:58.052Z,15.57
2023-05-12T17:50:28.845Z,15.54
2023-05-12T17:52:56.614Z,15.48
2023-05-12T17:55:23.875Z,15.33
2023-05-12T17:57:51.337Z,15.23
2023-05-12T18:00:18.680Z,15.12
2023-05-12T18:02:46.098Z,15.04
2023-05-12T18:05:13.701Z,15.06
2023-05-12T18:07:41.229Z,15.03
2023-05-12T18:10:09.408Z,15.02
2023-05-12T18:12:37.037Z,14.97
2023-05-12T18:15:04.913Z,14.91
2023-05-12T18:17:32.570Z,14.91
2023-05-12T18:19:59.880Z,14.87
2023-05-12T18:22:27.279Z,14.78
2023-05-12T18:24:55.066Z,14.75
2023-05-12T18:27:22.313Z,14.72
2023-05-12T18:29:49.809Z,14.64
2023-05-12T18:32:17.118Z,14.63
2023-05-12T18:34:45.594Z,14.61
2023-05-12T18:37:15.506Z,14.57
2023-05-12T18:39:43.278Z,14.55
2023-05-12T18:42:11.165Z,14.47
2023-05-12T18:44:40.712Z,14.44
2023-05-12T18:47:08.630Z,14.39
2023-05-12T18:49:36.150Z,14.39
2023-05-12T18:52:03.880Z,14.40
2023-05-12T18:54:31.172Z,14.44
2023-05-12T18:56:58.424Z,14.31
2023-05-12T18:59:25.638Z,14.36
2023-05-12T19:01:53.109Z,14.38
2023-05-12T19:04:21.914Z,14.34
2023-05-12T19:06:49.273Z,14.38
2023-05-12T19:09:16.457Z,14.37
2023-05-12T19:11:44.359Z,14.36
2023-05-12T19:14:12.032Z,14.38
2023-05-12T19:16:39.982Z,14.38
2023-05-12T19:19:07.384Z,14.36
2023-05-12T19:21:34.887Z,14.39
2023-05-12T19:24:02.255Z,14.37
2023-05-12T19:26:29.524Z,14.40
2023-05-12T19:28:56.912Z,14.37
2023-05-12T19:31:24.232Z,14.36
2023-05-12T19:33:52.034Z,14.37
2023-05-12T19:36:19.435Z,14.32
2023-05-12T19:38:46.601Z,14.32
2023-05-12T19:41:13.888Z,14.27
2023-05-12T19:43:41.220Z,14.28
2023-05-12T19:46:08.562Z,14.26
2023-05-12T19:48:36.014Z,14.30
2023-05-12T19:51:03.396Z,14.25
2023-05-12T19:53:30.670Z,14.28
2023-05-12T19:55:57.973Z,14.14
2023-05-12T19:58:25.219Z,14.09
2023-05-12T20:00:52.679Z,14.05
2023-05-12T20:03:20.225Z,13.95
2023-05-12T20:05:48.648Z,13.95
2023-05-12T20:08:16.022Z,14.00
2023-05-12T20:10:43.361Z,13.97
2023-05-12T20:13:10.519Z,13.93
2023-05-12T20:15:39.944Z,13.90
2023-05-12T20:18:07.376Z,13.84
2023-05-12T20:20:34.753Z,13.78
2023-05-12T20:23:02.133Z,13.74
2023-05-12T20:25:33.154Z,13.77
2023-05-12T20:28:00.506Z,13.74
2023-05-12T20:30:28.207Z,13.82
2023-05-12T20:32:55.778Z,13.86
2023-05-12T20:35:23.373Z,13.76
2023-05-12T20:37:51.269Z,13.76
2023-05-12T20:40:19.740Z,13.77
2023-05-12T20:42:47.306Z,13.73
2023-05-12T20:45:15.063Z,13.70
2023-05-12T20:47:42.604Z,13.81
2023-05-12T20:50:10.810Z,13.77
2023-05-12T20:52:38.971Z,13.81
2023-05-12T20:55:06.978Z,13.95
2023-05-12T20:57:34.159Z,13.92
2023-05-12T21:00:01.523Z,13.83
2023-05-12T21:02:29.361Z,13.64
2023-05-12T21:04:57.028Z,13.55
2023-05-12T21:07:24.427Z,13.67
2023-05-12T21:09:52.189Z,13.59
2023-05-12T21:12:20.398Z,13.62
2023-05-12T21:14:47.798Z,13.69
2023-05-12T21:17:16.479Z,13.49
2023-05-12T21:19:44.305Z,13.35
2023-05-12T21:22:12.911Z,13.16
2023-05-12T21:24:40.525Z,13.10
2023-05-12T21:27:08.324Z,12.94
2023-05-12T21:29:35.789Z,12.97
2023-05-12T21:32:03.103Z,12.92
2023-05-12T21:34:31.531Z,13.09
2023-05-12T21:37:00.062Z,12.94
2023-05-12T21:39:27.984Z,12.88
2023-05-12T21:41:55.276Z,12.82
2023-05-12T21:44:22.471Z,12.79
2023-05-12T21:46:49.867Z,12.72
2023-05-12T21:49:17.270Z,12.80
2023-05-12T21:51:44.495Z,12.76
2023-05-12T21:54:12.468Z,12.77
2023-05-12T21:56:39.709Z,12.73
2023-05-12T21:59:07.036Z,12.62
2023-05-12T22:01:34.380Z,12.56
2023-05-12T22:04:01.664Z,12.50
2023-05-12T22:06:28.939Z,12.38
2023-05-12T22:08:56.311Z,12.32
2023-05-12T22:11:23.716Z,12.31
2023-05-12T22:13:51.170Z,12.36
2023-05-12T22:16:21.674Z,12.26
2023-05-12T22:18:53.109Z,12.36
2023-05-12T22:21:21.672Z,12.37
2023-05-12T22:23:49.015Z,12.37
2023-05-12T22:26:16.338Z,12.29
2023-05-12T22:28:43.697Z,12.12
2023-05-12T22:31:11.003Z,11.95
2023-05-12T22:33:38.221Z,11.98
2023-05-12T22:36:05.651Z,12.05
2023-05-12T22:38:33.006Z,12.03
2023-05-12T22:41:00.465Z,11.94
2023-05-12T22:43:28.138Z,11.85
2023-05-12T22:45:56.633Z,11.88
2023-05-12T22:48:23.860Z,11.89
2023-05-12T22:50:54.047Z,11.97
2023-05-12T22:53:21.246Z,12.06
2023-05-12T22:55:48.906Z,12.02
2023-05-12T22:58:17.366Z,12.07
2023-05-12T23:00:44.715Z,12.09
2023-05-12T23:03:12.111Z,12.04
2023-05-12T23:05:39.417Z,12.01
2023-05-12T23:08:06.943Z,12.04
2023-05-12T23:10:34.421Z,12.02
2023-05-12T23:13:01.655Z,12.04
2023-05-12T23:15:28.969Z,12.07
2023-05-12T23:17:56.230Z,12.05
2023-05-12T23:20:23.904Z,11.98
2023-05-12T23:22:51.255Z,11.93
2023-05-12T23:25:18.621Z,11.83
2023-05-12T23:27:45.969Z,11.86
2023-05-12T23:30:13.340Z,11.87
2023-05-12T23:32:41.633Z,11.90
2023-05-12T23:35:09.617Z,11.95
2023-05-12T23:37:37.039Z,11.98
2023-05-12T23:40:04.587Z,12.04
2023-05-12T23:42:31.951Z,12.11
2023-05-12T23:44:59.157Z,12.12
2023-05-12T23:47:26.516Z,12.12
2023-05-12T23:49:54.119Z,12.04
2023-05-12T23:52:21.523Z,12.12
2023-05-12T23:54:48.836Z,12.07
2023-05-12T23:57:16.098Z,12.07
2023-05-12T23:59:44.123Z,11.98
